16. August 2022

Uhrzeit Code Wetter Temp. Sichtweite Wolkendecke Wind METAR/SPECI
12:00
V
30 °C 10 km+ - 130° 130° 7 kt METAR LFMU 161000Z AUTO 13007KT 090V160 CAVOK 30/16 Q1008 NOSIG
11:30
V
29 °C 10 km+ - 100° 100° 7 kt METAR LFMU 160930Z AUTO 10007KT 070V140 CAVOK 29/16 Q1008 NOSIG
11:00
V
28 °C 10 km+ - 090° 090° 8 kt METAR LFMU 160900Z AUTO 09008KT 040V130 CAVOK 28/15 Q1008 NOSIG
10:30
V
28 °C 10 km+ - 080° 080° 10 kt METAR LFMU 160830Z AUTO 08010KT 040V120 CAVOK 28/14 Q1008 NOSIG
10:00
V
28 °C 10 km+ - 090° 090° 10 kt METAR LFMU 160800Z AUTO 09010KT 060V130 CAVOK 28/15 Q1008 NOSIG
09:30
V
26 °C 10 km+ - 120° 120° 6 kt METAR LFMU 160730Z AUTO 12006KT 080V160 CAVOK 26/16 Q1008 NOSIG
09:00
V
25 °C 10 km+ - Var Var 3 kt METAR LFMU 160700Z AUTO VRB03KT CAVOK 25/16 Q1008 NOSIG
08:30
V
23 °C 10 km+ - Var Var 3 kt METAR LFMU 160630Z AUTO VRB03KT CAVOK 23/15 Q1008 NOSIG
08:00
V
21 °C 10 km+ - Var Var 3 kt METAR LFMU 160600Z AUTO VRB03KT CAVOK 21/14 Q1008 NOSIG
07:30
V
19 °C 10 km+ - 310° 310° 1 kt METAR LFMU 160530Z AUTO 31001KT CAVOK 19/14 Q1008 NOSIG
07:00
V
19 °C 10 km+ - Var Var 3 kt METAR LFMU 160500Z AUTO VRB03KT CAVOK 19/14 Q1008 NOSIG
06:30
V
19 °C 10 km+ - 320° 320° 3 kt METAR LFMU 160430Z AUTO 32003KT CAVOK 19/14 Q1007 NOSIG
06:00
V
19 °C 10 km+ - Var Var 2 kt METAR LFMU 160400Z AUTO VRB02KT CAVOK 19/14 Q1007 NOSIG
05:30
V
20 °C 10 km+ - Var 000° 0 kt METAR LFMU 160330Z AUTO 00000KT CAVOK 20/14 Q1007 NOSIG
05:00
V
19 °C 10 km+ - Var Var 1 kt METAR LFMU 160300Z AUTO VRB01KT CAVOK 19/14 Q1007 NOSIG
04:30
V
19 °C 10 km+ - 290° 290° 4 kt METAR LFMU 160230Z AUTO 29004KT CAVOK 19/14 Q1008
04:00
V
19 °C 10 km+ - 290° 290° 4 kt METAR LFMU 160200Z AUTO 29004KT CAVOK 19/14 Q1008
03:30
V
20 °C 10 km+ - Var 000° 0 kt METAR LFMU 160130Z AUTO 00000KT CAVOK 20/14 Q1008
03:00
V
21 °C 10 km+ - 340° 340° 2 kt METAR LFMU 160100Z AUTO 34002KT CAVOK 21/14 Q1008
02:30
V
20 °C 10 km+ - 300° 300° 3 kt METAR LFMU 160030Z AUTO 30003KT CAVOK 20/14 Q1008
02:00
V
21 °C 10 km+ - Var Var 2 kt METAR LFMU 160000Z AUTO VRB02KT CAVOK 21/14 Q1008
01:30
V
21 °C 10 km+ - 320° 320° 3 kt METAR LFMU 152330Z AUTO 32003KT CAVOK 21/14 Q1008
01:00
V
22 °C 10 km+ - 300° 300° 2 kt METAR LFMU 152300Z AUTO 30002KT CAVOK 22/14 Q1008
00:30
V
23 °C 10 km+ - 270° 270° 3 kt METAR LFMU 152230Z AUTO 27003KT CAVOK 23/14 Q1008
00:00
V
23 °C 10 km+ - 330° 330° 4 kt METAR LFMU 152200Z AUTO 33004KT CAVOK 23/15 Q1008

15. August 2022

Uhrzeit Code Wetter Temp. Sichtweite Wolkendecke Wind METAR/SPECI
23:30
V
23 °C 10 km+ - Var Var 3 kt METAR LFMU 152130Z AUTO VRB03KT CAVOK 23/14 Q1008
23:00
V
24 °C 10 km+ - 280° 280° 4 kt METAR LFMU 152100Z AUTO 28004KT CAVOK 24/15 Q1008
22:30
V
25 °C 10 km+ - 300° 300° 4 kt METAR LFMU 152030Z AUTO 30004KT CAVOK 25/17 Q1008 NOSIG
22:00
V
25 °C 10 km+ - 350° 350° 5 kt METAR LFMU 152000Z AUTO 35005KT CAVOK 25/20 Q1007 NOSIG
21:30
V
25 °C 10 km+ - 020° 020° 4 kt METAR LFMU 151930Z AUTO 02004KT CAVOK 25/20 Q1007 NOSIG
21:00
V
26 °C 10 km+ - Var Var 2 kt METAR LFMU 151900Z AUTO VRB02KT CAVOK 26/20 Q1007 NOSIG
20:30
V
27 °C 10 km+ - 170° 170° 5 kt METAR LFMU 151830Z AUTO 17005KT 130V190 CAVOK 27/21 Q1006 NOSIG
20:00
V
28 °C 10 km+ - 180° 180° 8 kt METAR LFMU 151800Z AUTO 18008KT 150V210 CAVOK 28/18 Q1006 NOSIG
19:30
V
29 °C 10 km+ - 180° 180° 9 kt METAR LFMU 151730Z AUTO 18009KT CAVOK 29/18 Q1006 NOSIG
19:00
V
30 °C 10 km+ - 170° 170° 7 kt METAR LFMU 151700Z AUTO 17007KT 140V200 CAVOK 30/16 Q1006 NOSIG
18:30
V
30 °C 10 km+ - 170° 170° 9 kt METAR LFMU 151630Z AUTO 17009KT CAVOK 30/16 Q1006 NOSIG
18:00
V
30 °C 10 km+ - 180° 180° 10 kt METAR LFMU 151600Z AUTO 18010KT CAVOK 30/16 Q1006 NOSIG
17:30
V
31 °C 10 km+ - 180° 180° 10 kt METAR LFMU 151530Z AUTO 18010KT CAVOK 31/17 Q1007 NOSIG
17:00
V
30 °C 10 km+ - 170° 170° 11 kt METAR LFMU 151500Z AUTO 17011KT CAVOK 30/17 Q1007 NOSIG
16:30
V
31 °C 10 km+ - 170° 170° 10 kt METAR LFMU 151430Z AUTO 17010KT 130V190 CAVOK 31/18 Q1007 NOSIG
16:00
V
31 °C 10 km+ - 190° 190° 11 kt METAR LFMU 151400Z AUTO 19011KT 150V210 CAVOK 31/16 Q1007 NOSIG
15:30
V
31 °C 10 km+ - 160° 160° 9 kt METAR LFMU 151330Z AUTO 16009KT 110V190 CAVOK 31/17 Q1007 NOSIG
15:00
V
32 °C 10 km+ - Var Var 5 kt METAR LFMU 151300Z AUTO VRB05KT CAVOK 32/15 Q1007 NOSIG
14:30
V
32 °C 10 km+ - Var Var 4 kt METAR LFMU 151230Z AUTO VRB04KT CAVOK 32/16 Q1007 NOSIG
14:00
V
31 °C 10 km+ - 260° 260° 8 kt METAR LFMU 151200Z AUTO 26008KT 220V320 CAVOK 31/16 Q1008 NOSIG
13:30
V
31 °C 10 km+ - 290° 290° 6 kt METAR LFMU 151130Z AUTO 29006KT 230V360 CAVOK 31/16 Q1008 BECMG 17012KT
13:00
V
30 °C 10 km+ - Var Var 5 kt METAR LFMU 151100Z AUTO VRB05KT CAVOK 30/16 Q1008 NOSIG
12:30
V
29 °C 10 km+ - 260° 260° 7 kt METAR LFMU 151030Z AUTO 26007KT 210V300 CAVOK 29/16 Q1008 NOSIG
12:00
V
28 °C 10 km+ - Var Var 5 kt METAR LFMU 151000Z AUTO VRB05KT CAVOK 28/16 Q1008 NOSIG
11:30
V
28 °C 10 km+ - 280° 280° 7 kt METAR LFMU 150930Z AUTO 28007KT 220V340 CAVOK 28/16 Q1008 NOSIG
11:00
V
27 °C 10 km+ - 340° 340° 5 kt METAR LFMU 150900Z AUTO 34005KT 250V040 CAVOK 27/15 Q1008 NOSIG
10:30
V
26 °C 10 km+ - 320° 320° 6 kt METAR LFMU 150830Z AUTO 32006KT 270V020 CAVOK 26/16 Q1009 NOSIG
10:00
V
25 °C 10 km+ - 310° 310° 5 kt METAR LFMU 150800Z AUTO 31005KT 280V050 CAVOK 25/16 Q1009 NOSIG
09:30
V
25 °C 10 km+ - 320° 320° 7 kt METAR LFMU 150730Z AUTO 32007KT CAVOK 25/16 Q1009 NOSIG
09:00
V
24 °C 10 km+ - 340° 340° 6 kt METAR LFMU 150700Z AUTO 34006KT CAVOK 24/17 Q1009 NOSIG
08:30
V
23 °C 10 km+ - 340° 340° 4 kt METAR LFMU 150630Z AUTO 34004KT 300V010 CAVOK 23/18 Q1009 NOSIG
08:00
V
21 °C 10 km+ - 340° 340° 4 kt METAR LFMU 150600Z AUTO 34004KT CAVOK 21/18 Q1009 NOSIG
07:30
V
21 °C 10 km+ - 330° 330° 3 kt METAR LFMU 150530Z AUTO 33003KT CAVOK 21/18 Q1009 NOSIG
07:00
V
20 °C 10 km+ - 310° 310° 4 kt METAR LFMU 150500Z AUTO 31004KT CAVOK 20/18 Q1009 NOSIG
06:30
V
20 °C 10 km+ - Var Var 2 kt METAR LFMU 150430Z AUTO VRB02KT CAVOK 20/18 Q1009 NOSIG
06:00
V
21 °C 10 km+ - 290° 290° 3 kt METAR LFMU 150400Z AUTO 29003KT 260V320 CAVOK 21/18 Q1009 NOSIG
05:30
V
20 °C 10 km+ - 300° 300° 3 kt METAR LFMU 150330Z AUTO 30003KT CAVOK 20/18 Q1009 NOSIG
05:00
V
20 °C 10 km+ - Var Var 3 kt METAR LFMU 150300Z AUTO VRB03KT CAVOK 20/18 Q1009 NOSIG
04:30
V
20 °C 10 km+ - 320° 320° 2 kt METAR LFMU 150230Z AUTO 32002KT CAVOK 20/18 Q1009
04:00
V
21 °C 10 km+ - 320° 320° 2 kt METAR LFMU 150200Z AUTO 32002KT CAVOK 21/19 Q1009
03:30
V
21 °C 10 km+ - 020° 020° 2 kt METAR LFMU 150130Z AUTO 02002KT CAVOK 21/19 Q1009
03:00
V
21 °C 10 km+ - Var Var 2 kt METAR LFMU 150100Z AUTO VRB02KT CAVOK 21/19 Q1009
02:30
V
21 °C 10 km+ - 230° 230° 1 kt METAR LFMU 150030Z AUTO 23001KT CAVOK 21/19 Q1009
02:00
V
22 °C 10 km+ - 350° 350° 4 kt METAR LFMU 150000Z AUTO 35004KT CAVOK 22/20 Q1009
01:30
V
22 °C 10 km+ - Var Var 2 kt METAR LFMU 142330Z AUTO VRB02KT CAVOK 22/19 Q1009
01:00
V
22 °C 10 km+ - 080° 080° 2 kt METAR LFMU 142300Z AUTO 08002KT CAVOK 22/20 Q1009
00:30
V
22 °C 10 km+ - Var Var 2 kt METAR LFMU 142230Z AUTO VRB02KT CAVOK 22/20 Q1009
00:00
V
22 °C 10 km+ - 340° 340° 2 kt METAR LFMU 142200Z AUTO 34002KT CAVOK 22/20 Q1009

14. August 2022

Uhrzeit Code Wetter Temp. Sichtweite Wolkendecke Wind METAR/SPECI
23:30
V
23 °C 10 km+ - Var Var 2 kt METAR LFMU 142130Z AUTO VRB02KT CAVOK 23/20 Q1009
23:00
V
24 °C 10 km+ - 090° 090° 5 kt METAR LFMU 142100Z AUTO 09005KT CAVOK 24/21 Q1009
22:30
V
24 °C 10 km+ - 250° 250° 1 kt METAR LFMU 142030Z AUTO 25001KT CAVOK 24/20 Q1009 NOSIG
22:00
V
25 °C 10 km+ - Var Var 3 kt METAR LFMU 142000Z AUTO VRB03KT CAVOK 25/20 Q1009 NOSIG
21:30
V
25 °C 10 km+ - 230° 230° 4 kt METAR LFMU 141930Z AUTO 23004KT CAVOK 25/20 Q1008 NOSIG
21:00
V
27 °C 10 km+ - 180° 180° 3 kt METAR LFMU 141900Z AUTO 18003KT CAVOK 27/20 Q1008 TEMPO VRB15G30KT 3000 TSRA BKN025 SCT030CB BKN050
20:30
V
29 °C 10 km+ - Var Var 2 kt METAR LFMU 141830Z AUTO VRB02KT CAVOK 29/15 Q1008 TEMPO VRB15G30KT 3000 TSRA BKN025 SCT030CB BKN050
20:00
V
29 °C 10 km+ - 060° 060° 4 kt METAR LFMU 141800Z AUTO 06004KT CAVOK 29/15 Q1007 TEMPO VRB15G30KT 3000 TSRA BKN025 SCT030CB BKN050
19:30
V
29 °C 10 km+ - 050° 050° 4 kt METAR LFMU 141730Z AUTO 05004KT 020V100 CAVOK 29/15 Q1007 TEMPO VRB15G30KT 3000 TSRA BKN025 SCT030CB BKN050
19:00
V
29 °C 10 km+ - 040° 040° 7 kt METAR LFMU 141700Z AUTO 04007KT 360V070 CAVOK 29/15 Q1007 TEMPO VRB15G30KT 3000 TSRA BKN025 SCT030CB BKN050
18:30
V
29 °C 10 km+ - 030° 030° 9 kt METAR LFMU 141630Z AUTO 03009KT CAVOK 29/16 Q1007 TEMPO VRB15G30KT 3000 TSRA BKN025 SCT030CB BKN050
18:00
V
29 °C 10 km+ - 040° 040° 11 kt METAR LFMU 141600Z AUTO 04011KT CAVOK 29/15 Q1008 TEMPO VRB15G30KT 3000 TSRA BKN025 SCT030CB BKN050
17:30
V
28 °C 10 km+ - 030° 030° 12 kt METAR LFMU 141530Z AUTO 03012KT CAVOK 28/16 Q1008 TEMPO VRB15G30KT 3000 TSRA BKN025 SCT030CB BKN050
17:00
V
28 °C 10 km+ - 040° 040° 15 kt METAR LFMU 141500Z AUTO 04015KT CAVOK 28/17 Q1008 TEMPO VRB15G30KT 3000 TSRA BKN025 SCT030CB BKN050
16:30
V
28 °C 10 km+ 7.200 ft 020° 020° 17 kt METAR LFMU 141430Z AUTO 02017KT 9999 FEW041 SCT060 BKN072 28/18 Q1008 TEMPO VRB15G30KT 3000 TSRA BKN025 SCT030CB BKN050
16:00
V
29 °C 10 km+ 6.600 ft 080° 080° 7 kt METAR LFMU 141400Z AUTO 08007KT 050V150 9999 SCT043/// BKN066/// //////CB 29/19 Q1008 BECMG BKN025
15:30
V
29 °C 10 km+ 4.300 ft 080° 080° 8 kt METAR LFMU 141330Z AUTO 08008KT 030V170 9999 BKN043/// BKN096/// ///CB 29/18 Q1008 BECMG BKN025
15:00
V
29 °C 10 km+ - 090° 090° 9 kt METAR LFMU 141300Z AUTO 09009KT 050V130 9999 FEW044/// //////CB 29/18 Q1009 BECMG BKN025
14:30
V
28 °C 10 km+ 4.100 ft 090° 090° 10 kt METAR LFMU 141230Z AUTO 09010KT 050V120 9999 SCT031/// BKN041/// ///CB 28/19 Q1009 BECMG BKN025
14:00
V
29 °C 10 km+ - 080° 080° 8 kt METAR LFMU 141200Z AUTO 08008KT 050V120 9999 FEW032/// ///CB 29/19 Q1009 BECMG BKN025
13:30
V
29 °C 10 km+ - 080° 080° 12 kt METAR LFMU 141130Z AUTO 08012KT 9999 //////CB 29/20 Q1009 BECMG 14004KT BKN025
13:00
V
29 °C 10 km+ - 060° 060° 11 kt METAR LFMU 141100Z AUTO 06011KT 030V090 CAVOK 29/22 Q1009 TEMPO BKN007 BKN020 SCT030CB
Ältere Daten

Wir und Dritte verfolgen dein Internetverhalten auf unserer Website mit Cookies. Wenn du fortfährst, gehen wir davon aus, dass du mit unserer Cookie-Richtlinie einverstanden bist. Mehr erfahren